Time;durP1;ratioP1;P1;durP2;ratioP2;P2;SDS_P1;SDS_P2;PMS_P1;PMS_P2;Temp;Humidity;BMP_temperature;BMP_pressure;BME280_temperature;BME280_humidity;BME280_pressure;Samples;Min_cycle;Max_cycle;Signal;HPM_P1;HPM_P2
2022/11/12 00:01:31;;;;;;;96.77;19.70;;;6.10;99.90;;;;;;5112854;28;20442;-69
2022/11/12 00:03:58;;;;;;;119.43;18.67;;;6.20;99.90;;;;;;5112198;28;20476;-69
2022/11/12 00:06:24;;;;;;;138.90;20.07;;;6.20;99.90;;;;;;5095599;28;20940;-69
2022/11/12 00:08:52;;;;;;;153.77;19.70;;;6.20;99.90;;;;;;5092670;28;20447;-69
2022/11/12 00:11:19;;;;;;;106.00;18.97;;;6.20;99.90;;;;;;5092364;28;20562;-69
2022/11/12 00:13:45;;;;;;;111.27;17.00;;;6.10;99.90;;;;;;5092851;28;20484;-69
2022/11/12 00:16:12;;;;;;;198.67;19.80;;;6.10;99.90;;;;;;5092706;28;20463;-69
2022/11/12 00:18:40;;;;;;;217.57;20.80;;;6.10;99.90;;;;;;5092103;28;20974;-69
2022/11/12 00:21:06;;;;;;;136.13;19.10;;;6.10;99.90;;;;;;5092392;28;20444;-69
2022/11/12 00:23:33;;;;;;;136.23;19.17;;;6.10;99.90;;;;;;5105951;28;20472;-69
2022/11/12 00:26:01;;;;;;;176.43;17.47;;;6.10;99.90;;;;;;5092443;28;20449;-69
2022/11/12 00:28:27;;;;;;;156.70;17.80;;;6.10;99.90;;;;;;5092338;28;20447;-69
2022/11/12 00:30:54;;;;;;;173.87;20.10;;;6.00;99.90;;;;;;5092134;28;20525;-69
2022/11/12 00:33:20;;;;;;;110.00;17.67;;;6.00;99.90;;;;;;5104504;28;20474;-69
2022/11/12 00:35:48;;;;;;;127.87;17.80;;;6.10;99.90;;;;;;5094321;28;20456;-69
2022/11/12 00:38:15;;;;;;;86.80;17.00;;;6.00;99.90;;;;;;5092197;28;20965;-69
2022/11/12 00:40:42;;;;;;;112.07;16.30;;;6.00;99.90;;;;;;5092151;28;20443;-69
2022/11/12 00:43:08;;;;;;;117.00;16.90;;;6.00;99.90;;;;;;5100688;28;20471;-69
2022/11/12 00:45:35;;;;;;;194.97;18.80;;;6.00;99.90;;;;;;5090860;28;20452;-69
2022/11/12 00:48:02;;;;;;;183.03;17.83;;;6.00;99.90;;;;;;5091618;28;20451;-69
2022/11/12 00:50:28;;;;;;;209.63;21.23;;;5.90;99.90;;;;;;5107450;28;21250;-69
2022/11/12 00:52:56;;;;;;;141.27;20.73;;;5.90;99.90;;;;;;5099796;28;20523;-69
2022/11/12 00:55:23;;;;;;;191.33;18.97;;;5.90;99.90;;;;;;5091589;28;20477;-69
2022/11/12 00:57:50;;;;;;;93.23;17.63;;;5.90;99.90;;;;;;5091591;28;20504;-69
2022/11/12 01:00:18;;;;;;;100.37;18.10;;;5.90;99.90;;;;;;5091562;28;20810;-69
2022/11/12 01:02:45;;;;;;;105.50;18.30;;;5.90;99.90;;;;;;5091539;28;20474;-69
2022/11/12 01:05:11;;;;;;;89.63;16.30;;;6.00;99.90;;;;;;5091734;28;20936;-69
2022/11/12 01:07:38;;;;;;;63.90;15.90;;;5.90;99.90;;;;;;5091851;28;20958;-69
2022/11/12 01:10:07;;;;;;;80.47;14.63;;;5.90;99.90;;;;;;5091743;28;20486;-69
2022/11/12 01:12:34;;;;;;;84.13;17.67;;;5.90;99.90;;;;;;5090707;28;20486;-69
2022/11/12 01:15:01;;;;;;;88.40;13.90;;;5.90;99.90;;;;;;5091661;28;20449;-69
2022/11/12 01:17:28;;;;;;;67.17;14.27;;;5.80;99.90;;;;;;5091817;28;20895;-69
2022/11/12 01:19:55;;;;;;;104.77;14.23;;;5.80;99.90;;;;;;5091613;28;20478;-69
2022/11/12 01:22:21;;;;;;;95.63;14.27;;;5.80;99.90;;;;;;5091279;28;20474;-69
2022/11/12 01:24:48;;;;;;;105.23;13.00;;;5.80;99.90;;;;;;5091343;28;20451;-69
2022/11/12 01:27:16;;;;;;;94.57;13.50;;;5.80;99.90;;;;;;5091069;28;20460;-69
2022/11/12 01:29:43;;;;;;;119.13;15.33;;;5.70;99.90;;;;;;5091146;28;20452;-69
2022/11/12 01:32:09;;;;;;;88.70;14.30;;;5.60;99.90;;;;;;5093178;28;20451;-69
2022/11/12 01:34:36;;;;;;;102.97;13.93;;;5.60;99.90;;;;;;5091385;28;20447;-69
2022/11/12 01:37:03;;;;;;;95.50;14.20;;;5.60;99.90;;;;;;5091368;28;20447;-69
2022/11/12 01:39:29;;;;;;;120.53;15.23;;;5.50;99.90;;;;;;5091319;28;20818;-69
2022/11/12 01:41:56;;;;;;;89.17;12.97;;;5.50;99.90;;;;;;5091517;28;20451;-69
2022/11/12 01:44:26;;;;;;;157.27;16.70;;;5.60;99.90;;;;;;5091550;28;20472;-69
2022/11/12 01:47:04;;;;;;;84.27;14.40;;;5.60;99.90;;;;;;5091610;28;20934;-69
2022/11/12 01:49:35;;;;;;;107.20;13.57;;;5.60;99.90;;;;;;5091466;28;20453;-69
2022/11/12 01:52:12;;;;;;;59.53;13.40;;;5.50;99.90;;;;;;5090766;28;20482;-69
2022/11/12 01:54:39;;;;;;;81.40;13.70;;;5.60;99.90;;;;;;5076862;28;20504;-69
2022/11/12 01:57:08;;;;;;;150.23;14.20;;;5.60;99.90;;;;;;5092325;28;20444;-68
2022/11/12 01:59:40;;;;;;;94.07;13.77;;;5.60;99.90;;;;;;5091091;28;20460;-69
2022/11/12 02:02:08;;;;;;;274.47;16.60;;;5.60;99.90;;;;;;5090685;28;20448;-69
2022/11/12 02:04:37;;;;;;;89.63;14.10;;;5.50;99.90;;;;;;5091526;28;20446;-69
2022/11/12 02:07:06;;;;;;;70.60;12.60;;;5.60;99.90;;;;;;5091350;28;20944;-68
2022/11/12 02:09:34;;;;;;;49.37;11.37;;;5.60;99.90;;;;;;5091330;28;20447;-69
2022/11/12 02:12:01;;;;;;;136.50;15.37;;;5.60;99.90;;;;;;5091087;28;20999;-68
2022/11/12 02:14:28;;;;;;;164.37;14.93;;;5.60;99.90;;;;;;5090940;28;20450;-69
2022/11/12 02:16:56;;;;;;;96.50;14.67;;;5.60;99.90;;;;;;5091288;28;20458;-69
2022/11/12 02:19:22;;;;;;;136.03;16.27;;;5.60;99.90;;;;;;5092364;28;20458;-69
2022/11/12 02:21:50;;;;;;;105.80;15.93;;;5.60;99.90;;;;;;5091001;28;20446;-69
2022/11/12 02:24:35;;;;;;;47.87;13.73;;;5.60;99.90;;;;;;5094423;28;20473;-69
2022/11/12 02:27:04;;;;;;;217.50;16.20;;;5.60;99.90;;;;;;5094409;28;20454;-69
2022/11/12 02:29:31;;;;;;;166.03;16.07;;;5.70;99.90;;;;;;5094662;28;20484;-69
2022/11/12 02:31:58;;;;;;;142.30;15.40;;;5.70;99.90;;;;;;5094535;28;20876;-69
2022/11/12 02:34:24;;;;;;;151.90;15.80;;;5.70;99.90;;;;;;5094648;28;20488;-68
2022/11/12 02:36:52;;;;;;;220.43;17.93;;;5.60;99.90;;;;;;5094636;28;20456;-68
2022/11/12 02:39:19;;;;;;;175.07;14.93;;;5.60;99.90;;;;;;5094244;28;20449;-68
2022/11/12 02:41:46;;;;;;;200.33;15.70;;;5.50;99.90;;;;;;5093752;28;20508;-68
2022/11/12 02:44:12;;;;;;;173.03;16.10;;;5.50;99.90;;;;;;5111122;28;20473;-68
2022/11/12 02:46:39;;;;;;;126.60;14.20;;;5.50;99.90;;;;;;5114614;28;20450;-69
2022/11/12 02:49:06;;;;;;;139.53;14.43;;;5.50;99.90;;;;;;5101732;28;20946;-68
2022/11/12 02:51:32;;;;;;;134.77;13.40;;;5.50;99.90;;;;;;5094064;28;20533;-69
2022/11/12 02:54:00;;;;;;;176.93;14.00;;;5.50;99.90;;;;;;5093683;28;20817;-69
2022/11/12 02:56:27;;;;;;;146.47;15.30;;;5.40;99.90;;;;;;5094152;28;20784;-69
2022/11/12 02:58:54;;;;;;;211.90;14.90;;;5.40;99.90;;;;;;5094376;28;20466;-68
2022/11/12 03:01:20;;;;;;;239.07;16.03;;;5.30;99.90;;;;;;5093863;28;20466;-69
2022/11/12 03:03:47;;;;;;;178.80;15.33;;;5.30;99.90;;;;;;5106497;28;20470;-68
2022/11/12 03:06:14;;;;;;;173.17;14.43;;;5.30;99.90;;;;;;5098470;28;20447;-68
2022/11/12 03:08:40;;;;;;;165.80;14.77;;;5.20;99.90;;;;;;5104223;28;20863;-69
2022/11/12 03:11:11;;;;;;;139.97;13.40;;;5.20;99.90;;;;;;5097165;28;20490;-68
2022/11/12 03:13:38;;;;;;;132.97;12.50;;;5.10;99.90;;;;;;5093866;28;20486;-68
2022/11/12 03:16:05;;;;;;;141.13;12.23;;;5.10;99.90;;;;;;5093569;28;20456;-69
2022/11/12 03:18:33;;;;;;;175.90;13.57;;;5.10;99.90;;;;;;5093876;28;20455;-69
2022/11/12 03:20:59;;;;;;;165.93;12.50;;;5.10;99.90;;;;;;5096957;28;20473;-69
2022/11/12 03:23:27;;;;;;;87.00;11.33;;;5.10;99.90;;;;;;5093284;28;20526;-69
2022/11/12 03:25:54;;;;;;;173.67;13.87;;;5.10;99.90;;;;;;5093675;28;20453;-69
2022/11/12 03:28:22;;;;;;;38.40;10.03;;;5.20;99.90;;;;;;5093730;28;20454;-69
2022/11/12 03:30:49;;;;;;;192.80;15.90;;;5.30;99.90;;;;;;5092913;28;20475;-69
2022/11/12 03:33:16;;;;;;;118.73;13.60;;;5.30;99.90;;;;;;5093036;28;20467;-68
2022/11/12 03:35:42;;;;;;;302.27;17.43;;;5.40;99.90;;;;;;5092894;28;20450;-69
2022/11/12 03:38:09;;;;;;;168.33;14.93;;;5.40;99.90;;;;;;5093260;28;20451;-69
2022/11/12 03:40:36;;;;;;;225.63;14.60;;;5.40;99.90;;;;;;5093412;28;20457;-69
2022/11/12 03:43:02;;;;;;;114.40;13.07;;;5.40;99.90;;;;;;5098535;28;20470;-69
2022/11/12 03:45:30;;;;;;;152.20;13.60;;;5.40;99.90;;;;;;5101819;27;20449;-69
2022/11/12 03:47:58;;;;;;;126.97;12.87;;;5.50;99.90;;;;;;5093099;28;20810;-69
2022/11/12 03:50:27;;;;;;;73.83;11.07;;;5.50;99.90;;;;;;5092873;28;20512;-69
2022/11/12 03:52:55;;;;;;;70.80;11.67;;;5.60;99.90;;;;;;5092825;28;20460;-69
2022/11/12 03:55:25;;;;;;;109.00;12.20;;;5.60;99.90;;;;;;5097135;28;21031;-69
2022/11/12 03:57:52;;;;;;;97.97;15.20;;;5.60;99.90;;;;;;5113516;28;20439;-69
2022/11/12 04:00:20;;;;;;;127.97;13.50;;;5.70;99.90;;;;;;5113510;28;20457;-69
2022/11/12 04:02:48;;;;;;;184.23;15.03;;;5.70;99.90;;;;;;5112755;28;20458;-69
2022/11/12 04:10:46;;;;;;;179.70;14.00;;;5.70;99.90;;;;;;5092181;28;20454;-69
2022/11/12 04:13:27;;;;;;;165.47;13.10;;;5.60;99.90;;;;;;5098785;28;20492;-69
2022/11/12 04:26:21;;;;;;;91.27;11.07;;;5.50;99.90;;;;;;5106846;28;20473;-69
2022/11/12 04:26:58;;;;;;;86.53;11.23;;;5.40;99.90;;;;;;5112689;28;20538;-69
2022/11/12 04:32:09;;;;;;;82.70;11.70;;;5.30;99.90;;;;;;5091727;28;20224;-69
2022/11/12 04:34:37;;;;;;;78.50;11.60;;;5.30;99.90;;;;;;5099518;28;20445;-69
2022/11/12 04:37:04;;;;;;;69.80;11.27;;;5.30;99.90;;;;;;5092104;28;21236;-69
2022/11/12 04:39:31;;;;;;;176.93;14.20;;;5.30;99.90;;;;;;5092290;28;20466;-68
2022/11/12 04:45:02;;;;;;;173.07;14.33;;;5.30;99.90;;;;;;5090811;28;20930;-69
2022/11/12 04:47:32;;;;;;;88.97;11.33;;;5.20;99.90;;;;;;5090915;28;20465;-69
2022/11/12 04:50:01;;;;;;;109.77;11.93;;;5.20;99.90;;;;;;5091592;28;20972;-69
2022/11/12 04:52:30;;;;;;;174.73;14.57;;;5.20;99.90;;;;;;5099783;28;20487;-69
2022/11/12 04:54:57;;;;;;;103.90;12.23;;;5.20;99.90;;;;;;5071798;28;20468;-68
2022/11/12 04:57:24;;;;;;;64.80;11.17;;;5.20;99.90;;;;;;5071679;28;20958;-69
2022/11/12 04:59:51;;;;;;;70.43;11.87;;;5.20;99.90;;;;;;5082912;28;20507;-69
2022/11/12 05:02:18;;;;;;;137.07;13.73;;;5.30;99.90;;;;;;5090532;28;20450;-69
2022/11/12 05:04:45;;;;;;;126.13;11.50;;;5.30;99.90;;;;;;5091971;28;20450;-69
2022/11/12 05:07:13;;;;;;;81.30;11.30;;;5.20;99.90;;;;;;5091788;28;20614;-69
2022/11/12 05:09:40;;;;;;;109.47;12.63;;;5.20;99.90;;;;;;5091789;28;20443;-69
2022/11/12 05:12:07;;;;;;;85.90;11.33;;;5.20;99.90;;;;;;5104864;28;20493;-69
2022/11/12 05:14:34;;;;;;;54.47;11.33;;;5.10;99.90;;;;;;5100001;28;20467;-69
2022/11/12 05:17:01;;;;;;;119.17;12.73;;;5.10;99.90;;;;;;5091719;28;20532;-69
2022/11/12 05:19:28;;;;;;;103.43;11.80;;;5.00;99.90;;;;;;5091786;28;20462;-69
2022/11/12 05:22:07;;;;;;;42.37;11.30;;;5.00;99.90;;;;;;5091561;28;20455;-68
2022/11/12 05:24:38;;;;;;;79.47;11.23;;;5.00;99.90;;;;;;5091401;28;20465;-68
2022/11/12 05:27:07;;;;;;;84.73;11.97;;;5.10;99.90;;;;;;5091878;28;20454;-68
2022/11/12 05:29:33;;;;;;;81.27;12.10;;;5.10;99.90;;;;;;5091098;28;20485;-68
2022/11/12 05:32:00;;;;;;;79.63;11.07;;;5.10;99.90;;;;;;5090879;28;20994;-68
2022/11/12 05:34:27;;;;;;;103.43;12.13;;;5.10;99.90;;;;;;5091208;28;20451;-68
2022/11/12 05:36:54;;;;;;;78.80;12.20;;;5.10;99.90;;;;;;5091107;28;20451;-68
2022/11/12 05:39:20;;;;;;;91.20;11.27;;;5.10;99.90;;;;;;5091461;28;20450;-68
2022/11/12 05:41:49;;;;;;;52.10;9.93;;;5.20;99.90;;;;;;5091334;28;20450;-68
2022/11/12 05:44:16;;;;;;;101.43;12.17;;;5.10;99.90;;;;;;5091120;28;20473;-69
2022/11/12 05:46:42;;;;;;;128.77;11.67;;;5.10;99.90;;;;;;5091655;28;20947;-69
2022/11/12 05:49:09;;;;;;;50.60;11.17;;;5.10;99.90;;;;;;5091502;28;20443;-69
2022/11/12 05:51:36;;;;;;;55.73;9.83;;;5.10;99.90;;;;;;5090997;28;20485;-68
2022/11/12 05:54:03;;;;;;;67.13;9.70;;;5.00;99.90;;;;;;5091297;28;20481;-69
2022/11/12 05:56:29;;;;;;;73.73;10.03;;;5.00;99.90;;;;;;5092448;28;20443;-68
2022/11/12 05:58:57;;;;;;;79.93;9.47;;;5.00;99.90;;;;;;5094552;28;21138;-68
2022/11/12 06:01:24;;;;;;;99.43;10.43;;;4.90;99.90;;;;;;5085984;28;20474;-68
2022/11/12 06:03:51;;;;;;;48.37;8.47;;;4.90;99.90;;;;;;5094998;28;20521;-68
2022/11/12 06:06:18;;;;;;;69.80;10.53;;;4.80;99.90;;;;;;5095193;28;20866;-69
2022/11/12 06:08:44;;;;;;;52.83;8.90;;;4.80;99.90;;;;;;5095367;28;20473;-69
2022/11/12 06:11:11;;;;;;;41.07;9.00;;;4.70;99.90;;;;;;5094411;28;20847;-69
2022/11/12 06:13:38;;;;;;;37.07;9.27;;;4.70;99.90;;;;;;5103291;28;20464;-69
2022/11/12 06:16:06;;;;;;;60.10;9.80;;;4.70;99.90;;;;;;5104773;28;20456;-69
2022/11/12 06:18:33;;;;;;;39.13;9.00;;;4.70;99.90;;;;;;5095021;28;20456;-69
2022/11/12 06:23:49;;;;;;;66.23;10.40;;;4.70;99.90;;;;;;5094597;28;20513;-69
2022/11/12 06:26:16;;;;;;;64.13;10.73;;;4.70;99.90;;;;;;5094201;28;20482;-69
2022/11/12 06:28:43;;;;;;;85.40;11.30;;;4.80;99.90;;;;;;5094620;28;20473;-69
2022/11/12 06:31:11;;;;;;;48.37;9.70;;;4.70;99.90;;;;;;5094224;28;20450;-69
2022/11/12 06:33:38;;;;;;;49.70;10.00;;;4.80;99.90;;;;;;5101514;28;20481;-69
2022/11/12 06:36:06;;;;;;;41.47;10.40;;;4.80;99.90;;;;;;5115000;27;20491;-69
2022/11/12 06:38:34;;;;;;;26.87;8.83;;;4.80;99.90;;;;;;5114565;28;20457;-69
2022/11/12 06:41:01;;;;;;;42.40;9.07;;;4.80;99.90;;;;;;5099482;28;20803;-69
2022/11/12 06:43:30;;;;;;;42.80;10.10;;;4.80;99.90;;;;;;5094588;28;20469;-69
2022/11/12 06:46:00;;;;;;;28.50;8.50;;;4.80;99.90;;;;;;5092818;28;20455;-68
2022/11/12 06:48:28;;;;;;;43.50;9.40;;;4.80;99.90;;;;;;5093349;28;20531;-69
2022/11/12 06:50:55;;;;;;;39.10;9.27;;;4.80;99.90;;;;;;5093389;28;20882;-68
2022/11/12 06:53:22;;;;;;;56.87;10.37;;;4.80;99.90;;;;;;5098726;28;20539;-68
2022/11/12 06:55:49;;;;;;;36.83;9.30;;;4.80;99.90;;;;;;5094685;28;20459;-68
2022/11/12 06:58:15;;;;;;;24.20;7.93;;;4.80;99.90;;;;;;5102505;28;20450;-69
2022/11/12 07:00:42;;;;;;;49.87;8.67;;;4.80;99.90;;;;;;5092233;28;20457;-69
2022/11/12 07:03:09;;;;;;;29.60;9.30;;;4.80;99.90;;;;;;5096093;28;20466;-69
2022/11/12 07:05:38;;;;;;;39.70;9.67;;;4.90;99.90;;;;;;5094896;28;20455;-69
2022/11/12 07:08:06;;;;;;;37.70;8.63;;;4.90;99.90;;;;;;5093164;28;20541;-69
2022/11/12 07:10:32;;;;;;;17.23;8.97;;;4.90;99.90;;;;;;5092859;28;20447;-69
2022/11/12 07:12:59;;;;;;;67.93;9.60;;;4.90;99.90;;;;;;5092420;28;20512;-68
2022/11/12 07:15:26;;;;;;;55.50;9.73;;;4.90;99.90;;;;;;5092554;28;20455;-68
2022/11/12 07:17:52;;;;;;;52.40;8.83;;;4.80;99.90;;;;;;5091414;28;20450;-68
2022/11/12 07:20:19;;;;;;;45.13;9.87;;;4.80;99.90;;;;;;5092077;28;20482;-68
2022/11/12 07:22:47;;;;;;;54.80;9.60;;;4.80;99.90;;;;;;5092302;28;20467;-69
2022/11/12 07:25:14;;;;;;;59.03;10.83;;;4.90;99.90;;;;;;5100656;28;20457;-69
2022/11/12 07:27:40;;;;;;;48.97;10.00;;;4.80;99.90;;;;;;5092570;28;20475;-69
2022/11/12 07:30:08;;;;;;;50.87;10.03;;;4.90;99.90;;;;;;5098992;28;20470;-69
2022/11/12 07:32:35;;;;;;;48.77;10.57;;;4.90;99.90;;;;;;5091299;28;20555;-68
2022/11/12 07:35:02;;;;;;;84.33;10.80;;;4.90;99.90;;;;;;5104245;28;20537;-68
2022/11/12 07:37:29;;;;;;;31.17;10.33;;;4.90;99.90;;;;;;5101074;28;20538;-69
2022/11/12 07:39:56;;;;;;;79.33;10.43;;;5.00;99.90;;;;;;5091997;28;20450;-69
2022/11/12 07:42:23;;;;;;;67.00;11.17;;;5.00;99.90;;;;;;5090328;28;20532;-68
2022/11/12 07:44:50;;;;;;;55.17;10.13;;;5.00;99.90;;;;;;5091382;28;20450;-69
2022/11/12 07:47:17;;;;;;;77.03;10.40;;;5.00;99.90;;;;;;5096102;28;21034;-78
2022/11/12 07:49:43;;;;;;;75.57;10.40;;;5.10;99.90;;;;;;5092271;28;20454;-78
2022/11/12 07:52:10;;;;;;;18.00;8.00;;;5.00;99.90;;;;;;5091772;28;20486;-78
2022/11/12 07:54:37;;;;;;;76.95;10.95;;;5.30;99.90;;;;;;5103828;28;20443;-69
2022/11/12 07:57:05;;;;;;;74.40;10.07;;;5.80;99.90;;;;;;5110750;28;20209;-69
2022/11/12 07:59:31;;;;;;;127.10;11.47;;;5.80;99.90;;;;;;5112471;28;20453;-69
2022/11/12 08:01:58;;;;;;;165.00;12.13;;;5.60;99.90;;;;;;5092556;28;20443;-69
2022/11/12 08:04:25;;;;;;;112.67;10.63;;;5.50;99.90;;;;;;5099274;28;20575;-69
2022/11/12 08:06:52;;;;;;;109.53;11.57;;;5.40;99.90;;;;;;5092032;28;20452;-69
2022/11/12 08:09:18;;;;;;;70.63;10.20;;;5.40;99.90;;;;;;5092343;28;20452;-69
2022/11/12 08:11:45;;;;;;;107.63;12.30;;;5.40;99.90;;;;;;5092139;28;20458;-69
2022/11/12 08:14:13;;;;;;;88.37;10.53;;;5.40;99.90;;;;;;5091093;28;21281;-69
2022/11/12 08:16:40;;;;;;;86.47;10.40;;;5.40;99.90;;;;;;5093386;28;20454;-69
2022/11/12 08:19:06;;;;;;;118.43;11.30;;;5.30;99.90;;;;;;5092533;28;20443;-69
2022/11/12 08:21:33;;;;;;;78.00;10.43;;;5.30;99.90;;;;;;5091978;28;20965;-69
2022/11/12 08:24:00;;;;;;;66.47;10.50;;;5.30;99.90;;;;;;5093879;28;20471;-69
2022/11/12 08:26:27;;;;;;;105.03;11.63;;;5.30;99.90;;;;;;5095209;28;20451;-69
2022/11/12 08:28:53;;;;;;;70.53;10.83;;;5.40;99.90;;;;;;5092196;28;20459;-69
2022/11/12 08:31:22;;;;;;;73.47;10.50;;;5.30;99.90;;;;;;5092047;28;20454;-69
2022/11/12 08:33:49;;;;;;;55.17;10.13;;;5.30;99.90;;;;;;5091824;28;20514;-69
2022/11/12 08:36:17;;;;;;;98.37;10.77;;;5.30;99.90;;;;;;5110171;28;20522;-69
2022/11/12 08:38:44;;;;;;;78.77;12.00;;;5.30;99.90;;;;;;5107213;28;20507;-69
2022/11/12 08:41:12;;;;;;;59.00;14.37;;;5.40;99.90;;;;;;5112124;28;20456;-69
2022/11/12 08:43:40;;;;;;;54.70;13.10;;;5.40;99.90;;;;;;5103680;28;20466;-69
2022/11/12 08:46:07;;;;;;;58.37;12.77;;;5.40;99.90;;;;;;5092865;28;20452;-69
2022/11/12 08:48:35;;;;;;;79.97;13.23;;;5.50;99.90;;;;;;5091393;28;20454;-69
2022/11/12 08:51:03;;;;;;;69.37;20.50;;;5.50;99.90;;;;;;5091506;28;20450;-69
2022/11/12 08:53:30;;;;;;;80.87;14.70;;;5.50;99.90;;;;;;5095519;28;20485;-68
2022/11/12 08:55:57;;;;;;;158.93;17.50;;;5.70;99.90;;;;;;5108956;28;21066;-68
2022/11/12 08:58:25;;;;;;;77.53;13.00;;;5.80;99.90;;;;;;5091959;28;20455;-68
2022/11/12 09:00:52;;;;;;;38.23;12.83;;;5.80;99.90;;;;;;5091850;28;20448;-68
2022/11/12 09:03:21;;;;;;;130.17;15.90;;;5.80;99.90;;;;;;5095088;28;20885;-69
2022/11/12 09:05:50;;;;;;;61.93;13.60;;;5.90;99.90;;;;;;5099462;28;20448;-70
2022/11/12 09:08:19;;;;;;;41.00;12.07;;;5.90;99.90;;;;;;5094446;28;20827;-70
2022/11/12 09:10:46;;;;;;;29.00;13.07;;;6.00;99.90;;;;;;5091352;28;20451;-70
2022/11/12 09:13:13;;;;;;;58.47;12.03;;;6.00;99.90;;;;;;5093447;28;20512;-70
2022/11/12 09:15:41;;;;;;;231.00;18.90;;;6.00;99.90;;;;;;5098663;28;20479;-69
2022/11/12 09:18:11;;;;;;;56.30;12.00;;;6.00;99.90;;;;;;5091266;28;20508;-69
2022/11/12 09:20:38;;;;;;;30.90;16.53;;;6.00;99.90;;;;;;5070674;28;20451;-69
2022/11/12 09:23:08;;;;;;;141.47;14.50;;;6.00;99.90;;;;;;5089778;28;20464;-69
2022/11/12 09:25:35;;;;;;;129.97;18.87;;;6.00;99.90;;;;;;5085426;28;20520;-70
2022/11/12 09:28:07;;;;;;;148.20;17.13;;;6.00;99.90;;;;;;5091547;28;20451;-69
2022/11/12 09:30:33;;;;;;;55.73;16.17;;;6.00;99.90;;;;;;5089128;28;20451;-69
2022/11/12 09:33:00;;;;;;;263.53;18.30;;;5.90;99.90;;;;;;5092109;28;20490;-69
2022/11/12 09:35:27;;;;;;;59.30;21.30;;;5.80;99.90;;;;;;5094281;28;20451;-69
2022/11/12 09:37:53;;;;;;;164.20;22.87;;;5.80;99.90;;;;;;5094628;28;20448;-69
2022/11/12 09:40:25;;;;;;;35.47;13.30;;;5.80;99.90;;;;;;5093968;28;20520;-69
2022/11/12 09:42:53;;;;;;;141.07;14.97;;;5.90;99.90;;;;;;5094581;28;20463;-69
2022/11/12 09:45:26;;;;;;;176.50;15.03;;;5.90;99.90;;;;;;5093691;28;20516;-70
2022/11/12 09:47:57;;;;;;;63.83;12.47;;;5.90;99.90;;;;;;5094438;28;20455;-69
2022/11/12 09:50:28;;;;;;;106.37;15.47;;;5.90;99.90;;;;;;5093447;28;20493;-70
2022/11/12 09:53:01;;;;;;;153.60;15.33;;;6.00;99.90;;;;;;5091036;28;21872;-70
2022/11/12 09:55:34;;;;;;;145.30;16.20;;;5.90;99.90;;;;;;5090032;28;20474;-69
2022/11/12 09:58:01;;;;;;;106.87;14.80;;;5.90;99.90;;;;;;5088272;28;20479;-70
2022/11/12 10:00:29;;;;;;;124.87;20.00;;;5.90;99.90;;;;;;5088443;28;20449;-69
2022/11/12 10:03:04;;;;;;;51.07;15.83;;;5.80;99.90;;;;;;5090491;28;20475;-70
2022/11/12 10:05:36;;;;;;;50.63;15.87;;;5.90;99.90;;;;;;5090101;28;20447;-70
2022/11/12 10:08:18;;;;;;;215.70;18.77;;;5.90;99.90;;;;;;5090365;28;20947;-70
2022/11/12 10:10:49;;;;;;;141.00;17.40;;;5.90;99.90;;;;;;5089673;28;20458;-70
2022/11/12 10:13:30;;;;;;;187.73;18.07;;;5.90;99.90;;;;;;5090713;28;20874;-69
2022/11/12 10:19:25;;;;;;;71.70;14.57;;;5.90;99.90;;;;;;5090486;28;20434;-70
2022/11/12 10:22:01;;;;;;;96.43;14.83;;;5.80;99.90;;;;;;5090783;28;20445;-69
2022/11/12 10:24:34;;;;;;;221.70;19.00;;;5.80;99.90;;;;;;5090886;28;20452;-70
2022/11/12 10:27:11;;;;;;;61.17;14.60;;;5.80;99.90;;;;;;5090658;28;20871;-70
2022/11/12 10:29:46;;;;;;;31.80;15.47;;;5.90;99.90;;;;;;5089959;28;20443;-69
2022/11/12 10:32:16;;;;;;;81.70;15.50;;;6.00;99.90;;;;;;5090489;28;20450;-67
2022/11/12 10:34:43;;;;;;;144.30;17.13;;;6.00;99.90;;;;;;5090790;28;20471;-68
2022/11/12 10:37:14;;;;;;;137.60;15.70;;;6.00;99.90;;;;;;5090388;28;20457;-69
2022/11/12 10:39:43;;;;;;;209.90;20.53;;;6.00;99.90;;;;;;5092836;28;20863;-68
2022/11/12 10:42:13;;;;;;;146.60;16.77;;;6.00;99.90;;;;;;5092868;28;20442;-68
2022/11/12 10:44:42;;;;;;;60.30;16.20;;;6.00;99.90;;;;;;5091799;28;21031;-68
2022/11/12 10:47:30;;;;;;;32.37;15.10;;;6.10;99.90;;;;;;5109473;28;20922;-69
2022/11/12 10:50:15;;;;;;;50.10;15.53;;;6.20;99.90;;;;;;5095613;28;20439;-69
2022/11/12 10:52:58;;;;;;;35.33;17.17;;;6.30;99.90;;;;;;5087477;28;20514;-68
2022/11/12 10:55:27;;;;;;;101.27;16.63;;;6.50;99.90;;;;;;5097983;28;20455;-71
2022/11/12 10:58:15;;;;;;;73.20;15.97;;;6.50;99.90;;;;;;5093384;28;20451;-71
2022/11/12 11:01:00;;;;;;;61.37;15.33;;;6.60;99.90;;;;;;5087334;28;20474;-68
2022/11/12 11:03:30;;;;;;;52.77;14.10;;;6.50;99.90;;;;;;5095547;28;20462;-69
2022/11/12 11:06:00;;;;;;;117.90;16.80;;;6.50;99.90;;;;;;5093469;28;20453;-68
2022/11/12 11:08:39;;;;;;;44.53;15.40;;;6.50;99.90;;;;;;5098754;28;20458;-68
2022/11/12 11:11:22;;;;;;;73.30;15.00;;;6.40;99.90;;;;;;5090816;28;20444;-67
2022/11/12 11:13:52;;;;;;;83.30;15.27;;;6.30;99.90;;;;;;5088184;28;20500;-67
2022/11/12 11:16:20;;;;;;;65.37;14.37;;;6.30;99.90;;;;;;5093071;28;20455;-67
2022/11/12 11:18:52;;;;;;;67.90;14.87;;;6.20;99.90;;;;;;5098863;28;20465;-67
2022/11/12 11:21:34;;;;;;;53.60;14.90;;;6.30;99.90;;;;;;5092673;28;20494;-67
2022/11/12 11:24:12;;;;;;;72.50;16.03;;;6.30;99.90;;;;;;5097193;28;20993;-67
2022/11/12 11:26:53;;;;;;;74.07;17.50;;;6.40;99.90;;;;;;5097151;28;20451;-67
2022/11/12 11:29:46;;;;;;;31.33;17.13;;;6.50;99.90;;;;;;5093570;28;20447;-67
2022/11/12 11:32:25;;;;;;;35.90;16.63;;;6.60;99.90;;;;;;5090083;28;20898;-66
2022/11/12 11:35:07;;;;;;;29.17;16.03;;;6.80;99.90;;;;;;5088305;28;20486;-67
2022/11/12 11:37:45;;;;;;;25.03;14.30;;;6.80;99.90;;;;;;5094586;28;20549;-67
2022/11/12 11:40:19;;;;;;;40.63;16.37;;;6.90;99.90;;;;;;5092030;28;20454;-68
2022/11/12 11:43:02;;;;;;;53.90;17.77;;;6.90;99.90;;;;;;5086658;28;20468;-68
2022/11/12 11:45:43;;;;;;;47.37;16.73;;;6.90;99.90;;;;;;5104539;28;20447;-68
2022/11/12 11:48:18;;;;;;;37.07;16.37;;;6.90;99.90;;;;;;5097657;28;20493;-68
2022/11/12 11:50:57;;;;;;;43.23;17.47;;;7.00;99.90;;;;;;5091593;28;20822;-68
2022/11/12 11:53:29;;;;;;;31.80;16.83;;;7.00;99.90;;;;;;5093246;28;20483;-68
2022/11/12 11:56:00;;;;;;;73.87;17.97;;;7.00;99.90;;;;;;5095800;28;20458;-68
2022/11/12 11:58:59;;;;;;;44.67;17.77;;;7.00;99.90;;;;;;5092078;28;20468;-69
2022/11/12 12:01:36;;;;;;;27.97;16.70;;;6.90;99.90;;;;;;5091854;28;20436;-68
2022/11/12 12:04:25;;;;;;;45.40;17.40;;;6.90;99.90;;;;;;5095900;28;20879;-68
2022/11/12 12:07:04;;;;;;;32.80;17.03;;;7.00;99.90;;;;;;5086651;28;20459;-68
2022/11/12 12:09:37;;;;;;;38.67;17.90;;;7.00;99.90;;;;;;5087899;28;21235;-69
2022/11/12 12:12:14;;;;;;;39.30;17.67;;;7.00;99.90;;;;;;5087774;28;20446;-68
2022/11/12 12:14:50;;;;;;;33.03;15.97;;;7.00;99.90;;;;;;5089770;28;20990;-80
2022/11/12 12:17:29;;;;;;;30.30;15.83;;;7.30;99.90;;;;;;5089259;28;20446;-78
2022/11/12 12:20:05;;;;;;;78.97;23.40;;;8.00;99.90;;;;;;5089369;28;20662;-81
2022/11/12 12:22:38;;;;;;;35.73;16.20;;;8.70;99.90;;;;;;5089260;28;20463;-81
2022/11/12 12:25:11;;;;;;;21.30;14.67;;;9.10;99.90;;;;;;5089158;28;20810;-80
2022/11/12 12:27:48;;;;;;;26.10;16.37;;;9.60;99.90;;;;;;5089417;28;20483;-80
2022/11/12 12:30:19;;;;;;;19.83;12.80;;;9.90;99.90;;;;;;5088903;28;20842;-81
2022/11/12 12:32:55;;;;;;;16.70;11.80;;;10.30;99.90;;;;;;5089843;28;20479;-81
2022/11/12 12:35:26;;;;;;;16.43;12.10;;;10.70;99.90;;;;;;5091353;28;20460;-83
2022/11/12 12:38:01;;;;;;;17.60;12.10;;;10.90;99.90;;;;;;5089720;28;20838;-81
2022/11/12 12:40:34;;;;;;;25.37;12.90;;;11.00;99.90;;;;;;5089876;28;20460;-85
2022/11/12 12:43:07;;;;;;;19.30;14.27;;;10.70;99.90;;;;;;5089932;28;20479;-84
2022/11/12 12:45:40;;;;;;;48.20;13.27;;;10.40;99.90;;;;;;5090812;28;20451;-75
2022/11/12 12:48:15;;;;;;;15.00;10.93;;;10.00;99.90;;;;;;5091012;28;20483;-79
2022/11/12 12:50:43;;;;;;;40.57;15.60;;;9.70;99.90;;;;;;5087407;28;20450;-76
2022/11/12 12:53:18;;;;;;;29.67;14.17;;;9.30;99.90;;;;;;5090954;28;20493;-70
2022/11/12 12:55:48;;;;;;;21.83;14.30;;;9.00;99.90;;;;;;5093896;28;20455;-70
2022/11/12 12:58:23;;;;;;;40.30;17.23;;;8.80;99.90;;;;;;5089693;28;20451;-69
2022/11/12 13:00:53;;;;;;;24.30;16.98;;;8.60;99.90;;;;;;5090228;28;20436;-72
2022/11/12 13:03:50;;;;;;;23.60;15.87;;;8.50;99.90;;;;;;5089970;28;20221;-72
2022/11/12 13:06:24;;;;;;;29.43;14.33;;;8.50;99.90;;;;;;5090534;28;20458;-71
2022/11/12 13:08:55;;;;;;;106.37;21.47;;;8.50;99.90;;;;;;5090049;28;20444;-71
2022/11/12 13:15:09;;;;;;;35.37;20.87;;;8.10;99.90;;;;;;5089100;28;20459;-70